Terminal Aerodrome Forecast
Issued by NWS Nashville, TN

Home | Current Version | Previous Version | Text Only | Print | Product List | Glossary On
Versions: 1 2 3 4 5 6 7 8 9 10 11 12 13 14 15 16 17 18 19 20 21
000
FTUS44 KOHX 240528
TAFCSV
TAF
KCSV 240528Z 2406/2506 09006KT 3SM -RA BR BKN025
     FM241000 00000KT 6SM BR VCSH OVC007
     FM241700 31009KT P6SM OVC015
     FM250000 32007KT 6SM BR OVC004=

USA.gov is the U.S. government's official web portal to all federal, state and local government web resources and services.